createdAt,value
2019-02-21T05:00:58.845Z,7.12
2019-02-21T05:01:58.712Z,7.16
2019-02-21T05:03:51.401Z,7.16
2019-02-21T05:04:51.270Z,7.23
2019-02-21T05:06:43.924Z,7.15
2019-02-21T05:07:43.808Z,7.16
2019-02-21T05:09:37.151Z,7.19
2019-02-21T05:10:36.854Z,7.16
2019-02-21T05:12:29.514Z,7.16
2019-02-21T05:13:29.402Z,7.04
2019-02-21T05:15:22.080Z,7.11
2019-02-21T05:16:21.946Z,7.09
2019-02-21T05:18:14.622Z,7.11
2019-02-21T05:19:14.499Z,7.11
2019-02-21T05:21:07.184Z,7.05
2019-02-21T05:22:07.045Z,7.05
2019-02-21T05:23:59.710Z,7.09
2019-02-21T05:24:59.591Z,7.09
2019-02-21T05:26:52.286Z,6.98
2019-02-21T05:27:52.143Z,6.98
2019-02-21T05:29:44.804Z,6.98
2019-02-21T05:30:44.693Z,6.98
2019-02-21T05:32:40.962Z,6.98
2019-02-21T05:33:37.233Z,6.98
2019-02-21T05:35:31.311Z,6.93
2019-02-21T05:36:29.798Z,6.97
2019-02-21T05:38:22.504Z,6.97
2019-02-21T05:39:22.350Z,6.98
2019-02-21T05:41:15.016Z,6.88
2019-02-21T05:42:14.901Z,6.90
2019-02-21T05:44:07.596Z,6.91
2019-02-21T05:45:07.459Z,6.95
2019-02-21T05:47:00.125Z,6.79
2019-02-21T05:48:01.193Z,6.80
2019-02-21T05:49:52.709Z,6.86
2019-02-21T05:50:52.566Z,6.86
2019-02-21T05:52:45.229Z,6.88
2019-02-21T05:53:45.114Z,6.86
2019-02-21T05:55:37.800Z,6.82
2019-02-21T05:56:37.672Z,6.75
2019-02-21T05:58:30.364Z,6.86
2019-02-21T05:59:30.225Z,6.76
2019-02-21T06:01:23.444Z,6.83
2019-02-21T06:02:23.325Z,6.73
2019-02-21T06:04:15.979Z,6.83
2019-02-21T06:05:15.860Z,6.82
2019-02-21T06:07:09.935Z,6.88
2019-02-21T06:08:08.911Z,6.88
2019-02-21T06:10:02.060Z,6.85
2019-02-21T06:11:01.948Z,6.85
2019-02-21T06:12:55.207Z,6.95
2019-02-21T06:13:55.037Z,6.98
2019-02-21T06:15:48.163Z,6.95
2019-02-21T06:16:48.044Z,7.01
2019-02-21T06:18:41.253Z,7.00
2019-02-21T06:19:41.079Z,7.00
2019-02-21T06:21:34.261Z,7.03
2019-02-21T06:22:34.139Z,6.98
2019-02-21T06:24:26.862Z,6.97
2019-02-21T06:25:29.846Z,6.97
2019-02-21T06:27:19.962Z,6.98
2019-02-21T06:28:19.812Z,6.97
2019-02-21T06:30:12.503Z,6.95
2019-02-21T06:31:12.366Z,6.94
2019-02-21T06:33:05.644Z,7.00
2019-02-21T06:34:05.013Z,6.97
2019-02-21T06:35:57.772Z,6.94
2019-02-21T06:36:57.576Z,6.97
2019-02-21T06:38:50.776Z,6.98
2019-02-21T06:39:50.672Z,6.94
2019-02-21T06:41:43.435Z,6.98
2019-02-21T06:42:43.297Z,6.95
2019-02-21T06:44:37.997Z,6.94
2019-02-21T06:45:35.884Z,7.03
2019-02-21T06:47:28.597Z,6.95
2019-02-21T06:48:28.456Z,6.94
2019-02-21T06:50:26.721Z,6.98
2019-02-21T06:51:21.063Z,6.95
2019-02-21T06:53:13.803Z,6.97
2019-02-21T06:54:13.661Z,7.04
2019-02-21T06:56:06.320Z,7.01
2019-02-21T06:57:06.204Z,7.03
2019-02-21T06:58:58.904Z,7.09
2019-02-21T06:59:58.756Z,7.05
2019-02-21T07:01:51.422Z,7.11
2019-02-21T07:02:51.315Z,7.09
2019-02-21T07:04:43.991Z,7.15
2019-02-21T07:05:43.865Z,7.18
2019-02-21T07:07:36.550Z,7.18
2019-02-21T07:08:36.423Z,7.21
2019-02-21T07:10:29.122Z,7.19
2019-02-21T07:11:28.963Z,7.30
2019-02-21T07:13:26.537Z,7.30
2019-02-21T07:14:21.530Z,7.37
2019-02-21T07:16:14.218Z,7.29
2019-02-21T07:17:14.143Z,7.41
2019-02-21T07:19:06.808Z,7.36
2019-02-21T07:20:06.660Z,7.47
2019-02-21T07:21:59.441Z,7.55
2019-02-21T07:22:59.294Z,7.45
2019-02-21T07:24:54.038Z,7.64
2019-02-21T07:25:51.909Z,7.63
2019-02-21T07:27:44.538Z,7.89
2019-02-21T07:28:44.382Z,7.95
2019-02-21T07:30:37.036Z,7.93
2019-02-21T07:31:36.969Z,7.91
2019-02-21T07:33:29.605Z,8.10
2019-02-21T07:34:30.454Z,8.13
2019-02-21T07:36:22.143Z,8.32
2019-02-21T07:37:22.047Z,8.31
2019-02-21T07:39:19.786Z,8.39
2019-02-21T07:40:20.024Z,8.46
2019-02-21T07:42:07.262Z,8.53
2019-02-21T07:43:07.147Z,8.62
2019-02-21T07:44:59.887Z,8.62
2019-02-21T07:45:59.728Z,8.61
2019-02-21T07:47:52.462Z,8.65
2019-02-21T07:48:52.340Z,8.64
2019-02-21T07:50:45.064Z,8.72
2019-02-21T07:51:44.857Z,8.68
2019-02-21T07:53:37.663Z,8.74
2019-02-21T07:54:37.460Z,8.74
2019-02-21T07:56:41.233Z,8.80
2019-02-21T07:57:30.037Z,8.94
2019-02-21T07:59:22.803Z,9.12
2019-02-21T08:00:22.577Z,9.16
2019-02-21T08:02:15.583Z,9.08
2019-02-21T08:03:15.254Z,9.21
2019-02-21T08:05:08.028Z,9.38
2019-02-21T08:06:07.792Z,9.47
2019-02-21T08:08:00.480Z,9.45
2019-02-21T08:09:00.362Z,9.63
2019-02-21T08:10:53.034Z,9.29
2019-02-21T08:11:53.929Z,9.38
2019-02-21T08:13:45.623Z,9.47
2019-02-21T08:14:45.468Z,9.56
2019-02-21T08:16:38.154Z,9.55
2019-02-21T08:17:38.041Z,9.38
2019-02-21T08:19:30.745Z,9.35
2019-02-21T08:20:34.136Z,9.27
2019-02-21T08:22:23.290Z,9.34
2019-02-21T08:23:23.165Z,9.29
2019-02-21T08:25:15.885Z,9.30
2019-02-21T08:26:15.740Z,9.32
2019-02-21T08:28:08.403Z,9.45
2019-02-21T08:29:08.286Z,9.47
2019-02-21T08:31:00.988Z,9.41
2019-02-21T08:32:00.851Z,9.48
2019-02-21T08:33:58.331Z,9.27
2019-02-21T08:34:53.412Z,9.24
2019-02-21T08:36:46.103Z,9.37
2019-02-21T08:37:45.978Z,9.32
2019-02-21T08:39:38.657Z,9.52
2019-02-21T08:40:38.535Z,9.41
2019-02-21T08:42:31.198Z,9.47
2019-02-21T08:43:31.083Z,9.57
2019-02-21T08:45:23.767Z,9.59
2019-02-21T08:46:23.642Z,9.70
2019-02-21T08:48:16.308Z,9.78
2019-02-21T08:49:16.201Z,9.82
2019-02-21T08:51:08.887Z,9.90
2019-02-21T08:52:08.759Z,9.85
2019-02-21T08:54:01.427Z,9.80
2019-02-21T08:55:01.320Z,9.84
2019-02-21T08:56:54.001Z,9.82
2019-02-21T08:57:53.877Z,9.89
2019-02-21T08:59:46.570Z,9.82
2019-02-21T09:00:46.441Z,9.88
2019-02-21T09:02:39.226Z,9.81
2019-02-21T09:03:39.071Z,9.95
2019-02-21T09:05:31.786Z,10.15
2019-02-21T09:06:31.618Z,10.23
2019-02-21T09:08:33.040Z,10.25
2019-02-21T09:09:24.187Z,10.31
2019-02-21T09:11:19.649Z,10.41
2019-02-21T09:12:16.745Z,10.47
2019-02-21T09:14:09.461Z,10.32
2019-02-21T09:15:09.350Z,10.29
2019-02-21T09:17:02.001Z,10.29
2019-02-21T09:18:01.894Z,10.17
2019-02-21T09:19:54.572Z,10.15
2019-02-21T09:20:54.456Z,10.15
2019-02-21T09:22:47.129Z,10.18
2019-02-21T09:23:47.011Z,10.07
2019-02-21T09:25:39.705Z,10.07
2019-02-21T09:26:39.576Z,9.98
2019-02-21T09:28:32.337Z,9.95
2019-02-21T09:29:32.149Z,9.95
2019-02-21T09:31:24.907Z,10.05
2019-02-21T09:32:24.777Z,9.95
2019-02-21T09:34:21.260Z,10.10
2019-02-21T09:35:17.295Z,10.11
2019-02-21T09:37:10.002Z,10.41
2019-02-21T09:38:09.870Z,10.41
2019-02-21T09:40:02.593Z,10.51
2019-02-21T09:41:02.425Z,10.57
2019-02-21T09:42:55.158Z,10.58
2019-02-21T09:43:55.004Z,10.65
2019-02-21T09:45:47.710Z,10.36
2019-02-21T09:46:47.682Z,10.39
2019-02-21T09:48:40.732Z,10.33
2019-02-21T09:49:40.559Z,10.41
2019-02-21T09:51:33.361Z,10.51
2019-02-21T09:52:33.140Z,10.47
2019-02-21T09:54:25.951Z,10.55
2019-02-21T09:55:25.775Z,10.65
2019-02-21T09:57:18.475Z,10.69
2019-02-21T09:58:18.368Z,10.85
2019-02-21T10:00:11.034Z,11.13
2019-02-21T10:01:10.902Z,11.10
2019-02-21T10:03:03.584Z,11.20
2019-02-21T10:04:03.470Z,11.21
2019-02-21T10:05:56.199Z,11.33
2019-02-21T10:06:56.115Z,11.34
2019-02-21T10:08:49.255Z,11.49
2019-02-21T10:09:48.813Z,11.48
2019-02-21T10:11:41.527Z,11.51
2019-02-21T10:12:41.440Z,11.51
2019-02-21T10:14:34.049Z,11.59
2019-02-21T10:15:33.948Z,11.51
2019-02-21T10:17:26.635Z,11.59
2019-02-21T10:18:26.496Z,11.78
2019-02-21T10:20:19.168Z,11.76
2019-02-21T10:21:19.063Z,11.79
2019-02-21T10:23:11.748Z,11.79
2019-02-21T10:24:11.610Z,11.89
2019-02-21T10:26:04.288Z,11.88
2019-02-21T10:27:04.182Z,11.98
2019-02-21T10:28:56.879Z,12.05
2019-02-21T10:29:56.743Z,12.10
2019-02-21T10:31:49.443Z,12.01
2019-02-21T10:32:49.314Z,11.88
2019-02-21T10:34:43.348Z,12.04
2019-02-21T10:35:41.886Z,12.13
2019-02-21T10:37:34.586Z,12.31
2019-02-21T10:38:34.452Z,12.47
2019-02-21T10:40:27.151Z,12.37
2019-02-21T10:41:27.027Z,12.28
2019-02-21T10:43:19.702Z,12.45
2019-02-21T10:44:19.591Z,12.47
2019-02-21T10:46:12.292Z,12.47
2019-02-21T10:47:12.172Z,12.43
2019-02-21T10:49:04.855Z,12.45
2019-02-21T10:50:04.750Z,12.58
2019-02-21T10:51:57.409Z,12.55
2019-02-21T10:52:57.284Z,12.55
2019-02-21T10:54:49.960Z,12.44
2019-02-21T10:55:49.862Z,12.59
2019-02-21T10:57:45.181Z,12.61
2019-02-21T10:58:42.427Z,12.63
2019-02-21T11:00:35.095Z,12.62
2019-02-21T11:01:34.991Z,12.81
2019-02-21T11:03:27.678Z,12.81
2019-02-21T11:04:27.557Z,12.88
2019-02-21T11:06:20.228Z,12.89
2019-02-21T11:07:20.122Z,12.98
2019-02-21T11:09:12.828Z,13.01
2019-02-21T11:10:12.683Z,13.16
2019-02-21T11:12:05.357Z,12.99
2019-02-21T11:13:05.252Z,13.13
2019-02-21T11:14:57.954Z,13.14
2019-02-21T11:15:57.822Z,13.10
2019-02-21T11:17:50.495Z,12.94
2019-02-21T11:18:50.394Z,13.14
2019-02-21T11:20:43.182Z,13.11
2019-02-21T11:21:42.964Z,13.31
2019-02-21T11:23:35.643Z,13.42
2019-02-21T11:24:35.532Z,13.62
2019-02-21T11:26:28.233Z,13.44
2019-02-21T11:27:28.105Z,13.32
2019-02-21T11:29:20.784Z,13.44
2019-02-21T11:30:20.681Z,13.42
2019-02-21T11:32:13.366Z,13.37
2019-02-21T11:33:13.244Z,13.20
2019-02-21T11:35:06.938Z,12.91
2019-02-21T11:36:05.828Z,12.74
2019-02-21T11:37:58.518Z,12.86
2019-02-21T11:38:58.379Z,12.84
2019-02-21T11:40:51.048Z,12.84
2019-02-21T11:41:50.945Z,12.74
2019-02-21T11:43:43.646Z,12.62
2019-02-21T11:44:43.518Z,12.70
2019-02-21T11:46:36.185Z,12.56
2019-02-21T11:47:36.575Z,12.58
2019-02-21T11:49:28.842Z,12.53
2019-02-21T11:50:28.662Z,12.52
2019-02-21T11:52:21.418Z,12.45
2019-02-21T11:53:21.311Z,12.48
2019-02-21T11:55:14.024Z,12.62
2019-02-21T11:56:15.746Z,12.78
2019-02-21T11:58:06.563Z,13.06
2019-02-21T11:59:06.462Z,13.09
2019-02-21T12:00:59.148Z,13.29
2019-02-21T12:01:59.016Z,13.39
2019-02-21T12:03:51.692Z,13.68
2019-02-21T12:04:51.582Z,13.72
2019-02-21T12:06:44.270Z,13.65
2019-02-21T12:07:44.147Z,13.68
2019-02-21T12:09:36.828Z,13.78
2019-02-21T12:10:36.725Z,13.72
2019-02-21T12:12:29.565Z,13.90
2019-02-21T12:13:29.282Z,13.99
2019-02-21T12:15:21.965Z,13.91
2019-02-21T12:16:21.858Z,13.93
2019-02-21T12:18:14.552Z,14.01
2019-02-21T12:19:14.419Z,13.99
2019-02-21T12:21:07.145Z,14.08
2019-02-21T12:22:07.069Z,13.91
2019-02-21T12:23:59.734Z,13.48
2019-02-21T12:24:59.605Z,13.57
2019-02-21T12:26:52.283Z,13.47
2019-02-21T12:27:52.175Z,13.58
2019-02-21T12:29:44.866Z,13.63
2019-02-21T12:30:44.747Z,13.72
2019-02-21T12:32:37.419Z,13.90
2019-02-21T12:33:37.306Z,14.02
2019-02-21T12:35:30.438Z,13.93
2019-02-21T12:36:29.874Z,13.84
2019-02-21T12:38:22.552Z,13.78
2019-02-21T12:39:22.440Z,13.70
2019-02-21T12:41:15.152Z,13.72
2019-02-21T12:42:15.065Z,13.76
2019-02-21T12:44:07.716Z,13.66
2019-02-21T12:45:07.596Z,13.55
2019-02-21T12:47:00.294Z,13.72
2019-02-21T12:48:00.173Z,13.79
2019-02-21T12:49:55.309Z,13.66
2019-02-21T12:50:52.743Z,13.62
2019-02-21T12:52:45.440Z,13.63
2019-02-21T12:53:45.310Z,13.58
2019-02-21T12:55:37.984Z,13.55
2019-02-21T12:56:37.882Z,13.66
2019-02-21T12:58:30.567Z,13.68
2019-02-21T12:59:30.439Z,13.63
2019-02-21T13:01:23.166Z,13.81
2019-02-21T13:02:23.049Z,13.94
2019-02-21T13:04:15.733Z,13.78
2019-02-21T13:05:15.609Z,13.93
2019-02-21T13:07:08.277Z,13.69
2019-02-21T13:08:08.184Z,13.79
2019-02-21T13:10:00.904Z,14.09
2019-02-21T13:11:00.768Z,14.05
2019-02-21T13:12:53.473Z,13.95
2019-02-21T13:13:53.400Z,14.16
2019-02-21T13:15:46.059Z,14.03
2019-02-21T13:16:46.053Z,13.95
2019-02-21T13:18:38.643Z,13.99
2019-02-21T13:19:38.513Z,14.01
2019-02-21T13:21:31.343Z,14.05
2019-02-21T13:22:31.119Z,14.06
2019-02-21T13:24:23.752Z,13.94
2019-02-21T13:25:23.646Z,13.91
2019-02-21T13:27:16.335Z,13.94
2019-02-21T13:28:16.308Z,13.93
2019-02-21T13:30:08.895Z,14.06
2019-02-21T13:31:08.870Z,13.99
2019-02-21T13:33:01.490Z,14.16
2019-02-21T13:34:01.360Z,13.99
2019-02-21T13:35:54.083Z,13.99
2019-02-21T13:36:54.007Z,13.94
2019-02-21T13:38:46.631Z,13.93
2019-02-21T13:39:46.501Z,14.01
2019-02-21T13:41:39.176Z,13.97
2019-02-21T13:42:39.074Z,14.05
2019-02-21T13:44:31.758Z,14.01
2019-02-21T13:45:31.638Z,13.76
2019-02-21T13:47:24.335Z,13.70
2019-02-21T13:48:24.223Z,13.60
2019-02-21T13:50:16.935Z,13.68
2019-02-21T13:51:16.809Z,13.57
2019-02-21T13:53:09.481Z,13.51
2019-02-21T13:54:09.378Z,13.54
2019-02-21T13:56:02.060Z,13.47
2019-02-21T13:57:01.942Z,13.42
2019-02-21T13:58:54.617Z,13.51
2019-02-21T13:59:54.506Z,13.60
2019-02-21T14:01:47.231Z,13.66
2019-02-21T14:02:47.100Z,13.62
2019-02-21T14:04:39.780Z,13.68
2019-02-21T14:05:39.662Z,13.83
2019-02-21T14:07:32.359Z,13.91
2019-02-21T14:08:32.221Z,13.97
2019-02-21T14:10:24.902Z,14.16
2019-02-21T14:11:24.792Z,14.03
2019-02-21T14:13:17.489Z,14.01
2019-02-21T14:14:17.359Z,14.06
2019-02-21T14:16:10.048Z,13.79
2019-02-21T14:17:09.960Z,13.69
2019-02-21T14:19:02.630Z,13.83
2019-02-21T14:20:02.516Z,13.79
2019-02-21T14:21:55.185Z,13.78
2019-02-21T14:22:55.070Z,13.73
2019-02-21T14:24:47.773Z,13.73
2019-02-21T14:25:47.645Z,13.70
2019-02-21T14:27:40.323Z,13.57
2019-02-21T14:28:40.211Z,13.58
2019-02-21T14:30:32.907Z,13.50
2019-02-21T14:31:33.617Z,13.47
2019-02-21T14:33:25.445Z,13.48
2019-02-21T14:34:25.341Z,13.60
2019-02-21T14:36:19.249Z,13.58
2019-02-21T14:37:17.901Z,13.53
2019-02-21T14:39:10.764Z,13.60
2019-02-21T14:40:10.468Z,13.57
2019-02-21T14:42:04.497Z,13.58
2019-02-21T14:43:03.129Z,13.66
2019-02-21T14:44:55.719Z,13.65
2019-02-21T14:45:55.606Z,13.81
2019-02-21T14:47:48.305Z,13.91
2019-02-21T14:48:48.293Z,13.99
2019-02-21T14:50:40.855Z,13.83
2019-02-21T14:51:40.849Z,13.68
2019-02-21T14:53:33.446Z,13.83
2019-02-21T14:54:33.315Z,13.87
2019-02-21T14:56:26.985Z,13.86
2019-02-21T14:57:26.872Z,13.79
2019-02-21T14:59:20.019Z,13.87
2019-02-21T15:00:19.447Z,13.95
2019-02-21T15:02:12.124Z,13.95
2019-02-21T15:03:21.577Z,14.01
2019-02-21T15:05:04.712Z,13.73
2019-02-21T15:06:04.666Z,13.68
2019-02-21T15:07:57.280Z,13.60
2019-02-21T15:08:57.161Z,13.58
2019-02-21T15:10:52.453Z,13.68
2019-02-21T15:11:49.726Z,13.73
2019-02-21T15:13:42.405Z,13.86
2019-02-21T15:14:42.294Z,13.83
2019-02-21T15:16:34.995Z,13.81
2019-02-21T15:17:34.857Z,13.87
2019-02-21T15:19:27.527Z,13.70
2019-02-21T15:20:36.339Z,13.66
2019-02-21T15:22:20.105Z,13.79
2019-02-21T15:23:19.984Z,13.87
2019-02-21T15:25:12.657Z,13.86
2019-02-21T15:26:12.549Z,13.86
2019-02-21T15:28:05.244Z,13.70
2019-02-21T15:29:05.111Z,13.73
2019-02-21T15:30:57.777Z,13.69
2019-02-21T15:31:57.681Z,13.66
2019-02-21T15:33:50.366Z,13.60
2019-02-21T15:34:50.246Z,13.65
2019-02-21T15:36:42.910Z,13.58
2019-02-21T15:37:44.855Z,13.62
2019-02-21T15:39:35.492Z,13.50
2019-02-21T15:40:35.373Z,13.54
2019-02-21T15:42:28.039Z,13.58
2019-02-21T15:43:27.940Z,13.53
2019-02-21T15:45:23.398Z,13.58
2019-02-21T15:46:20.503Z,13.44
2019-02-21T15:48:13.169Z,13.54
2019-02-21T15:49:13.053Z,13.44
2019-02-21T15:51:05.759Z,13.42
2019-02-21T15:52:05.642Z,13.53
2019-02-21T15:53:58.293Z,13.44
2019-02-21T15:54:58.189Z,13.57
2019-02-21T15:56:50.983Z,13.45
2019-02-21T15:58:00.493Z,13.55
2019-02-21T15:59:43.535Z,13.44
2019-02-21T16:00:43.426Z,13.50
2019-02-21T16:02:36.112Z,13.42
2019-02-21T16:03:35.992Z,13.29
2019-02-21T16:05:28.654Z,13.25
2019-02-21T16:06:28.544Z,13.36
2019-02-21T16:08:21.242Z,13.32
2019-02-21T16:09:21.103Z,13.25
2019-02-21T16:11:13.780Z,13.19
2019-02-21T16:12:13.978Z,13.19
2019-02-21T16:14:06.371Z,13.07
2019-02-21T16:15:06.236Z,13.01
2019-02-21T16:16:58.905Z,12.96
2019-02-21T16:17:58.799Z,12.88
2019-02-21T16:19:51.506Z,12.88
2019-02-21T16:20:52.978Z,12.77
2019-02-21T16:22:44.137Z,12.58
2019-02-21T16:23:43.914Z,12.73
2019-02-21T16:25:36.609Z,12.65
2019-02-21T16:26:36.478Z,12.58
2019-02-21T16:28:29.150Z,12.55
2019-02-21T16:29:29.041Z,12.61
2019-02-21T16:31:21.729Z,12.65
2019-02-21T16:32:21.596Z,12.59
2019-02-21T16:34:14.283Z,12.59
2019-02-21T16:35:14.170Z,12.62
2019-02-21T16:37:06.883Z,12.66
2019-02-21T16:38:06.730Z,12.69
2019-02-21T16:40:01.001Z,12.61
2019-02-21T16:40:59.300Z,12.62
2019-02-21T16:42:51.982Z,12.65
2019-02-21T16:43:51.865Z,12.63
2019-02-21T16:45:47.250Z,12.62
2019-02-21T16:46:44.419Z,12.61
2019-02-21T16:48:37.097Z,12.69
2019-02-21T16:49:36.979Z,12.63
2019-02-21T16:51:29.676Z,12.66
2019-02-21T16:52:29.545Z,12.63
2019-02-21T16:54:22.212Z,12.74
2019-02-21T16:55:22.103Z,12.70
2019-02-21T16:57:14.787Z,12.69
2019-02-21T16:58:14.648Z,12.62
2019-02-21T17:00:07.323Z,12.61
2019-02-21T17:01:07.208Z,12.61
2019-02-21T17:02:59.912Z,12.65
2019-02-21T17:03:59.782Z,12.63
2019-02-21T17:05:52.450Z,12.58
2019-02-21T17:06:52.346Z,12.63
2019-02-21T17:08:45.029Z,12.62
2019-02-21T17:09:44.943Z,12.58
2019-02-21T17:11:37.569Z,12.48
2019-02-21T17:12:37.457Z,12.45
2019-02-21T17:14:30.153Z,12.47
2019-02-21T17:15:30.025Z,12.44
2019-02-21T17:17:22.705Z,12.47
2019-02-21T17:18:22.590Z,12.53
2019-02-21T17:20:15.272Z,12.58
2019-02-21T17:21:15.152Z,12.58
2019-02-21T17:23:07.811Z,12.55
2019-02-21T17:24:07.714Z,12.51
2019-02-21T17:26:00.423Z,12.59
2019-02-21T17:27:00.279Z,12.48
2019-02-21T17:28:52.943Z,12.51
2019-02-21T17:29:52.838Z,12.47
2019-02-21T17:31:45.523Z,12.51
2019-02-21T17:32:45.422Z,12.52
2019-02-21T17:34:38.065Z,12.45
2019-02-21T17:35:37.954Z,12.47
2019-02-21T17:37:30.649Z,12.31
2019-02-21T17:38:30.528Z,12.19
2019-02-21T17:40:23.184Z,12.19
2019-02-21T17:41:23.070Z,12.22
2019-02-21T17:43:15.773Z,12.25
2019-02-21T17:44:15.654Z,12.28
2019-02-21T17:46:08.328Z,12.33
2019-02-21T17:47:08.194Z,12.28
2019-02-21T17:49:00.879Z,12.22
2019-02-21T17:50:00.756Z,12.36
2019-02-21T17:51:53.941Z,12.28
2019-02-21T17:52:53.319Z,12.33
2019-02-21T17:54:46.016Z,12.36
2019-02-21T17:55:45.880Z,12.33
2019-02-21T17:57:38.550Z,12.33
2019-02-21T17:58:38.438Z,12.33
2019-02-21T18:00:31.129Z,12.16
2019-02-21T18:01:30.994Z,12.20
2019-02-21T18:03:23.794Z,12.20
2019-02-21T18:04:23.680Z,12.26
2019-02-21T18:06:16.372Z,12.19
2019-02-21T18:07:16.234Z,12.16
2019-02-21T18:09:08.903Z,12.22
2019-02-21T18:10:08.807Z,12.22
2019-02-21T18:12:01.481Z,12.23
2019-02-21T18:13:01.354Z,12.18
2019-02-21T18:14:54.026Z,12.04
2019-02-21T18:15:53.910Z,12.08
2019-02-21T18:17:46.606Z,12.13
2019-02-21T18:18:46.474Z,12.15
2019-02-21T18:20:39.158Z,12.28
2019-02-21T18:21:39.062Z,12.19
2019-02-21T18:23:31.755Z,12.20
2019-02-21T18:24:31.614Z,12.20
2019-02-21T18:26:24.339Z,12.18
2019-02-21T18:27:24.172Z,12.16
2019-02-21T18:29:16.861Z,12.08
2019-02-21T18:30:16.739Z,12.10
2019-02-21T18:32:09.394Z,12.03
2019-02-21T18:33:09.286Z,11.95
2019-02-21T18:35:02.467Z,11.97
2019-02-21T18:36:02.334Z,11.95
2019-02-21T18:37:55.011Z,11.89
2019-02-21T18:38:54.894Z,11.88
2019-02-21T18:40:48.101Z,11.85
2019-02-21T18:41:47.963Z,11.86
2019-02-21T18:43:40.634Z,11.89
2019-02-21T18:44:40.521Z,11.88
2019-02-21T18:46:33.214Z,11.91
2019-02-21T18:47:33.084Z,11.85
2019-02-21T18:49:25.829Z,11.91
2019-02-21T18:50:25.693Z,11.89
2019-02-21T18:52:18.372Z,11.97
2019-02-21T18:53:18.254Z,11.94
2019-02-21T18:55:10.909Z,11.94
2019-02-21T18:56:10.807Z,11.89
2019-02-21T18:58:03.491Z,11.95
2019-02-21T18:59:03.362Z,12.00
2019-02-21T19:00:56.038Z,12.01
2019-02-21T19:01:55.931Z,11.97
2019-02-21T19:03:48.607Z,11.95
2019-02-21T19:04:48.491Z,11.85
2019-02-21T19:06:41.154Z,11.88
2019-02-21T19:07:41.094Z,11.91
2019-02-21T19:09:33.734Z,11.88
2019-02-21T19:10:33.624Z,11.88
2019-02-21T19:12:26.267Z,11.79
2019-02-21T19:13:26.230Z,11.75
2019-02-21T19:15:18.852Z,11.76
2019-02-21T19:16:18.775Z,11.79
2019-02-21T19:18:11.389Z,11.82
2019-02-21T19:19:11.279Z,11.76
2019-02-21T19:21:03.963Z,11.82
2019-02-21T19:22:03.828Z,11.82
2019-02-21T19:23:56.505Z,11.82
2019-02-21T19:24:56.393Z,11.85
2019-02-21T19:26:49.177Z,11.75
2019-02-21T19:27:48.965Z,11.78
2019-02-21T19:29:41.680Z,11.71
2019-02-21T19:30:41.526Z,11.79
2019-02-21T19:32:34.223Z,11.78
2019-02-21T19:33:34.077Z,11.79
2019-02-21T19:35:26.763Z,11.60
2019-02-21T19:36:26.662Z,11.70
2019-02-21T19:38:19.338Z,11.64
2019-02-21T19:39:19.203Z,11.68
2019-02-21T19:41:11.882Z,11.81
2019-02-21T19:42:11.772Z,11.78
2019-02-21T19:44:08.983Z,11.67
2019-02-21T19:45:04.322Z,11.68
2019-02-21T19:46:57.010Z,11.64
2019-02-21T19:47:56.878Z,11.68
2019-02-21T19:49:49.570Z,11.57
2019-02-21T19:50:49.440Z,11.67
2019-02-21T19:52:42.104Z,11.67
2019-02-21T19:53:41.995Z,11.64
2019-02-21T19:55:34.720Z,11.71
2019-02-21T19:56:34.553Z,11.64
2019-02-21T19:58:27.252Z,11.61
2019-02-21T19:59:27.122Z,11.63
2019-02-21T20:01:19.800Z,11.63
2019-02-21T20:02:19.675Z,11.67
2019-02-21T20:04:12.331Z,11.52
2019-02-21T20:05:12.247Z,11.45
2019-02-21T20:07:04.918Z,11.49
2019-02-21T20:08:08.621Z,11.48
2019-02-21T20:09:57.451Z,11.43
2019-02-21T20:10:57.336Z,11.34
2019-02-21T20:12:50.045Z,11.31
2019-02-21T20:13:49.917Z,11.24
2019-02-21T20:15:42.571Z,11.28
2019-02-21T20:16:42.493Z,11.24
2019-02-21T20:18:35.146Z,11.16
2019-02-21T20:19:35.083Z,11.16
2019-02-21T20:21:28.186Z,11.09
2019-02-21T20:22:28.064Z,11.06
2019-02-21T20:24:20.742Z,11.06
2019-02-21T20:25:20.616Z,11.00
2019-02-21T20:27:13.283Z,10.94
2019-02-21T20:28:13.176Z,10.97
2019-02-21T20:30:05.870Z,10.95
2019-02-21T20:31:05.734Z,11.09
2019-02-21T20:32:58.416Z,11.00
2019-02-21T20:33:58.331Z,10.97
2019-02-21T20:35:50.998Z,10.95
2019-02-21T20:36:51.529Z,10.98
2019-02-21T20:38:43.528Z,10.92
2019-02-21T20:39:43.467Z,10.90
2019-02-21T20:41:36.111Z,10.94
2019-02-21T20:42:35.988Z,10.95
2019-02-21T20:44:28.658Z,11.06
2019-02-21T20:45:28.588Z,10.92
2019-02-21T20:47:21.255Z,10.97
2019-02-21T20:48:21.100Z,10.87
2019-02-21T20:50:13.856Z,11.03
2019-02-21T20:51:13.660Z,10.95
2019-02-21T20:53:06.410Z,11.03
2019-02-21T20:54:06.302Z,11.00
2019-02-21T20:55:59.820Z,10.90
2019-02-21T20:56:58.853Z,10.92
2019-02-21T20:58:51.569Z,10.98
2019-02-21T20:59:51.423Z,10.92
2019-02-21T21:01:44.148Z,10.91
2019-02-21T21:02:44.036Z,11.00
2019-02-21T21:04:36.742Z,10.95
2019-02-21T21:05:36.579Z,10.92
2019-02-21T21:07:29.244Z,10.94
2019-02-21T21:08:29.347Z,10.98
2019-02-21T21:10:21.901Z,10.98
2019-02-21T21:11:21.699Z,10.97
2019-02-21T21:13:14.409Z,11.00
2019-02-21T21:14:14.271Z,11.06
2019-02-21T21:16:06.956Z,10.95
2019-02-21T21:17:06.828Z,11.05
2019-02-21T21:18:59.493Z,11.13
2019-02-21T21:19:59.415Z,10.97
2019-02-21T21:21:52.059Z,10.97
2019-02-21T21:22:51.930Z,11.05
2019-02-21T21:24:44.601Z,10.95
2019-02-21T21:25:44.491Z,11.00
2019-02-21T21:27:37.190Z,10.98
2019-02-21T21:28:37.043Z,10.98
2019-02-21T21:30:29.725Z,11.00
2019-02-21T21:31:29.612Z,11.03
2019-02-21T21:33:22.298Z,10.91
2019-02-21T21:34:22.169Z,10.97
2019-02-21T21:36:14.843Z,10.92
2019-02-21T21:37:14.729Z,10.92
2019-02-21T21:39:07.415Z,11.02
2019-02-21T21:40:07.288Z,11.03
2019-02-21T21:42:00.000Z,10.91
2019-02-21T21:42:59.993Z,10.98
2019-02-21T21:44:53.100Z,10.87
2019-02-21T21:45:52.678Z,10.91
2019-02-21T21:47:45.366Z,10.90
2019-02-21T21:48:45.233Z,10.88
2019-02-21T21:50:37.911Z,10.83
2019-02-21T21:51:37.782Z,10.85
2019-02-21T21:53:30.454Z,10.88
2019-02-21T21:54:30.346Z,10.90
2019-02-21T21:56:23.259Z,10.83
2019-02-21T21:57:22.905Z,10.87
2019-02-21T21:59:15.625Z,10.87
2019-02-21T22:00:17.751Z,10.92
2019-02-21T22:02:08.208Z,10.90
2019-02-21T22:03:08.070Z,10.90
2019-02-21T22:05:00.742Z,10.80
2019-02-21T22:06:00.635Z,10.77
2019-02-21T22:07:53.326Z,10.88
2019-02-21T22:08:53.197Z,10.88
2019-02-21T22:10:45.870Z,10.83
2019-02-21T22:11:46.069Z,10.85
2019-02-21T22:13:38.455Z,10.80
2019-02-21T22:14:38.330Z,10.85
2019-02-21T22:16:31.006Z,10.77
2019-02-21T22:17:30.895Z,10.76
2019-02-21T22:19:23.587Z,10.73
2019-02-21T22:20:23.568Z,10.70
2019-02-21T22:22:16.213Z,10.69
2019-02-21T22:23:16.056Z,10.67
2019-02-21T22:25:08.714Z,10.75
2019-02-21T22:26:08.580Z,10.83
2019-02-21T22:28:01.251Z,10.77
2019-02-21T22:29:01.141Z,10.80
2019-02-21T22:30:53.839Z,10.77
2019-02-21T22:31:53.704Z,10.80
2019-02-21T22:33:46.376Z,10.79
2019-02-21T22:34:46.258Z,10.77
2019-02-21T22:36:38.954Z,10.88
2019-02-21T22:37:38.889Z,10.88
2019-02-21T22:39:31.563Z,10.84
2019-02-21T22:40:31.570Z,10.80
2019-02-21T22:42:24.738Z,10.85
2019-02-21T22:43:23.983Z,10.85
2019-02-21T22:45:16.649Z,10.90
2019-02-21T22:46:16.551Z,10.80
2019-02-21T22:48:09.276Z,10.79
2019-02-21T22:49:09.142Z,10.77
2019-02-21T22:51:01.824Z,10.73
2019-02-21T22:52:01.699Z,10.75
2019-02-21T22:53:54.389Z,10.79
2019-02-21T22:54:54.260Z,10.83
2019-02-21T22:56:46.939Z,10.75
2019-02-21T22:57:46.826Z,10.75
2019-02-21T22:59:39.506Z,10.79
